createdAt,value
2018-10-15T00:00:17.276Z,62.30
2018-10-15T00:02:45.423Z,62.90
2018-10-15T00:05:13.691Z,62.70
2018-10-15T00:07:41.367Z,62.70
2018-10-15T00:10:09.578Z,62.40
2018-10-15T00:12:37.264Z,63.00
2018-10-15T00:15:28.320Z,63.40
2018-10-15T00:17:55.981Z,63.30
2018-10-15T00:20:24.747Z,62.90
2018-10-15T00:22:53.124Z,63.70
2018-10-15T00:25:20.804Z,63.20
2018-10-15T00:27:48.468Z,63.00
2018-10-15T00:30:16.414Z,63.10
2018-10-15T00:32:45.365Z,62.90
2018-10-15T00:35:14.468Z,63.10
2018-10-15T00:37:43.335Z,62.90
2018-10-15T00:40:11.052Z,62.90
2018-10-15T00:42:39.969Z,63.00
2018-10-15T00:45:09.564Z,62.70
2018-10-15T00:47:37.308Z,62.60
2018-10-15T00:50:05.597Z,63.00
2018-10-15T00:52:33.263Z,62.90
2018-10-15T00:55:00.929Z,62.90
2018-10-15T00:57:28.604Z,62.60
2018-10-15T00:59:57.236Z,63.30
2018-10-15T01:02:26.892Z,63.20
2018-10-15T01:04:54.555Z,63.10
2018-10-15T01:07:23.228Z,63.00
2018-10-15T01:09:50.915Z,63.10
2018-10-15T01:12:18.580Z,63.00
2018-10-15T01:14:47.173Z,63.20
2018-10-15T01:17:15.727Z,63.10
2018-10-15T01:19:44.539Z,63.00
2018-10-15T01:22:12.871Z,63.00
2018-10-15T01:24:42.084Z,63.00
2018-10-15T01:27:11.308Z,63.00
2018-10-15T01:29:40.236Z,63.10
2018-10-15T01:32:07.901Z,63.20
2018-10-15T01:34:35.552Z,63.20
2018-10-15T01:37:03.216Z,63.20
2018-10-15T01:39:30.884Z,63.20
2018-10-15T01:41:59.604Z,63.10
2018-10-15T01:44:27.280Z,63.10
2018-10-15T01:46:54.940Z,63.20
2018-10-15T01:49:22.595Z,63.00
2018-10-15T01:51:50.259Z,62.70
2018-10-15T01:54:17.956Z,62.90
2018-10-15T01:56:45.625Z,61.90
2018-10-15T01:59:13.810Z,61.60
2018-10-15T02:01:43.135Z,61.50
2018-10-15T02:04:11.810Z,61.40
2018-10-15T02:06:41.035Z,61.50
2018-10-15T02:09:10.771Z,61.50
2018-10-15T02:11:40.292Z,61.70
2018-10-15T02:14:10.628Z,61.90
2018-10-15T02:16:38.292Z,62.20
2018-10-15T02:19:06.836Z,62.90
2018-10-15T02:21:35.504Z,62.60
2018-10-15T02:24:04.186Z,62.70
2018-10-15T02:26:31.887Z,62.70
2018-10-15T02:29:00.613Z,62.70
2018-10-15T02:31:29.328Z,63.10
2018-10-15T02:33:58.072Z,62.50
2018-10-15T02:36:26.710Z,62.70
2018-10-15T02:38:55.395Z,62.60
2018-10-15T02:41:24.132Z,62.50
2018-10-15T02:43:52.794Z,62.70
2018-10-15T02:46:21.468Z,62.60
2018-10-15T02:48:49.995Z,62.40
2018-10-15T02:51:17.656Z,62.50
2018-10-15T02:53:46.221Z,62.50
2018-10-15T02:56:14.795Z,62.50
2018-10-15T02:58:44.560Z,62.50
2018-10-15T03:01:15.017Z,62.40
2018-10-15T03:03:43.696Z,62.20
2018-10-15T03:06:12.948Z,62.00
2018-10-15T03:08:41.385Z,62.70
2018-10-15T03:11:10.109Z,62.10
2018-10-15T03:13:38.776Z,62.50
2018-10-15T03:16:06.432Z,62.60
2018-10-15T03:18:35.104Z,62.50
2018-10-15T03:21:03.778Z,62.50
2018-10-15T03:23:32.520Z,62.50
2018-10-15T03:26:00.940Z,62.40
2018-10-15T03:28:29.617Z,62.20
2018-10-15T03:30:58.284Z,62.50
2018-10-15T03:33:26.952Z,62.70
2018-10-15T03:35:55.620Z,63.00
2018-10-15T03:38:24.183Z,62.70
2018-10-15T03:40:52.852Z,62.60
2018-10-15T03:43:21.391Z,62.50
2018-10-15T03:45:49.936Z,62.70
2018-10-15T03:48:18.472Z,62.40
2018-10-15T03:50:47.016Z,62.50
2018-10-15T03:53:15.596Z,62.50
2018-10-15T03:55:45.045Z,62.40
2018-10-15T03:58:13.936Z,62.30
2018-10-15T04:00:43.210Z,62.30
2018-10-15T04:03:11.950Z,62.40
2018-10-15T04:05:41.052Z,62.30
2018-10-15T04:08:09.608Z,62.10
2018-10-15T04:10:37.276Z,62.10
2018-10-15T04:13:04.945Z,62.30
2018-10-15T04:15:40.473Z,62.60
2018-10-15T04:18:09.898Z,62.30
2018-10-15T04:20:39.093Z,62.50
2018-10-15T04:23:06.763Z,62.50
2018-10-15T04:25:35.320Z,62.40
2018-10-15T04:28:03.024Z,62.40
2018-10-15T04:30:31.704Z,62.10
2018-10-15T04:32:59.377Z,62.20
2018-10-15T04:35:28.076Z,62.20
2018-10-15T04:37:56.680Z,62.20
2018-10-15T04:40:24.398Z,62.10
2018-10-15T04:42:53.073Z,62.20
2018-10-15T04:45:21.815Z,62.10
2018-10-15T04:47:50.493Z,62.10
2018-10-15T04:50:18.147Z,62.20
2018-10-15T04:52:45.807Z,62.10
2018-10-15T04:55:15.988Z,62.20
2018-10-15T04:57:44.682Z,62.10
2018-10-15T05:00:15.058Z,62.30
2018-10-15T05:02:44.893Z,62.20
2018-10-15T05:05:14.041Z,62.10
2018-10-15T05:07:43.837Z,62.30
2018-10-15T05:10:13.015Z,62.40
2018-10-15T05:12:43.002Z,62.10
2018-10-15T05:15:13.768Z,61.90
2018-10-15T05:17:43.172Z,62.70
2018-10-15T05:20:12.000Z,61.70
2018-10-15T05:22:40.724Z,62.40
2018-10-15T05:25:08.792Z,62.30
2018-10-15T05:27:36.517Z,62.20
2018-10-15T05:30:04.843Z,62.20
2018-10-15T05:32:32.515Z,62.30
2018-10-15T05:35:00.207Z,62.30
2018-10-15T05:37:27.875Z,62.30
2018-10-15T05:39:55.540Z,62.40
2018-10-15T05:42:23.300Z,62.50
2018-10-15T05:44:50.987Z,62.50
2018-10-15T05:47:19.556Z,62.00
2018-10-15T05:49:47.248Z,62.00
2018-10-15T05:52:15.524Z,61.70
2018-10-15T05:54:43.988Z,61.70
2018-10-15T05:57:11.669Z,61.60
2018-10-15T05:59:39.695Z,61.90
2018-10-15T06:02:07.364Z,61.90
2018-10-15T06:04:35.903Z,61.90
2018-10-15T06:07:04.796Z,61.90
2018-10-15T06:09:32.461Z,61.80
2018-10-15T06:12:01.022Z,62.00
2018-10-15T06:14:28.690Z,61.80
2018-10-15T06:16:56.352Z,61.90
2018-10-15T06:19:24.026Z,61.70
2018-10-15T06:21:51.700Z,61.70
2018-10-15T06:24:19.848Z,62.00
2018-10-15T06:26:47.524Z,61.70
2018-10-15T06:29:15.241Z,61.90
2018-10-15T06:31:43.015Z,61.50
2018-10-15T06:34:11.297Z,61.30
2018-10-15T06:36:41.020Z,61.00
2018-10-15T06:39:10.788Z,60.90
2018-10-15T06:41:40.628Z,60.90
2018-10-15T06:44:10.507Z,60.90
2018-10-15T06:46:39.832Z,61.00
2018-10-15T06:49:07.664Z,61.10
2018-10-15T06:51:36.322Z,61.40
2018-10-15T06:54:03.984Z,61.50
2018-10-15T06:56:31.644Z,61.40
2018-10-15T06:58:59.340Z,61.60
2018-10-15T07:01:27.902Z,61.30
2018-10-15T07:03:55.573Z,61.70
2018-10-15T07:06:24.216Z,62.10
2018-10-15T07:08:51.925Z,62.00
2018-10-15T07:11:19.592Z,62.50
2018-10-15T07:13:47.374Z,62.10
2018-10-15T07:16:15.102Z,62.00
2018-10-15T07:18:44.052Z,62.00
2018-10-15T07:21:11.752Z,61.90
2018-10-15T07:23:40.453Z,61.50
2018-10-15T07:26:09.831Z,61.70
2018-10-15T07:28:38.328Z,61.70
2018-10-15T07:31:07.040Z,61.50
2018-10-15T07:33:35.783Z,61.10
2018-10-15T07:36:03.514Z,61.40
2018-10-15T07:38:31.180Z,60.70
2018-10-15T07:40:59.846Z,60.10
2018-10-15T07:43:29.280Z,59.60
2018-10-15T07:45:57.824Z,59.10
2018-10-15T07:48:26.395Z,59.50
2018-10-15T07:50:55.432Z,60.00
2018-10-15T07:53:24.151Z,59.70
2018-10-15T07:55:51.825Z,59.20
2018-10-15T07:58:20.655Z,59.40
2018-10-15T08:00:49.292Z,59.30
2018-10-15T08:03:17.884Z,59.90
2018-10-15T08:05:46.645Z,59.60
2018-10-15T08:08:15.365Z,59.50
2018-10-15T08:10:44.716Z,59.70
2018-10-15T08:13:14.147Z,59.90
2018-10-15T08:15:43.360Z,60.20
2018-10-15T08:18:11.941Z,59.90
2018-10-15T08:20:42.101Z,59.90
2018-10-15T08:23:12.119Z,59.80
2018-10-15T08:25:40.816Z,59.70
2018-10-15T08:28:08.938Z,59.30
2018-10-15T08:30:37.521Z,59.30
2018-10-15T08:33:06.200Z,59.40
2018-10-15T08:35:33.985Z,59.60
2018-10-15T08:38:02.658Z,60.00
2018-10-15T08:40:31.349Z,59.60
2018-10-15T08:43:00.101Z,59.70
2018-10-15T08:45:28.848Z,59.40
2018-10-15T08:47:56.532Z,59.60
2018-10-15T08:50:24.274Z,59.70
2018-10-15T08:52:52.875Z,59.60
2018-10-15T08:55:20.843Z,59.50
2018-10-15T08:57:49.426Z,59.30
2018-10-15T09:00:18.840Z,59.30
2018-10-15T09:02:47.818Z,59.60
2018-10-15T09:05:15.956Z,59.30
2018-10-15T09:07:46.804Z,59.20
2018-10-15T09:10:16.464Z,60.10
2018-10-15T09:12:45.188Z,59.70
2018-10-15T09:15:16.668Z,59.60
2018-10-15T09:17:45.440Z,60.10
2018-10-15T09:20:15.194Z,60.50
2018-10-15T09:22:44.102Z,59.70
2018-10-15T09:25:14.652Z,59.90
2018-10-15T09:27:44.817Z,59.90
2018-10-15T09:30:15.261Z,60.20
2018-10-15T09:32:44.201Z,60.10
2018-10-15T09:35:15.312Z,59.90
2018-10-15T09:37:44.714Z,60.40
2018-10-15T09:40:15.638Z,60.50
2018-10-15T09:42:45.818Z,60.70
2018-10-15T09:45:16.819Z,61.00
2018-10-15T09:47:46.932Z,60.90
2018-10-15T09:50:15.556Z,60.90
2018-10-15T09:52:45.249Z,61.50
2018-10-15T09:55:14.539Z,61.70
2018-10-15T09:57:43.382Z,60.70
2018-10-15T10:00:18.213Z,60.90
2018-10-15T10:02:48.258Z,61.90
2018-10-15T10:05:17.272Z,62.70
2018-10-15T10:07:45.633Z,62.10
2018-10-15T10:10:14.073Z,62.10
2018-10-15T10:12:41.773Z,60.50
2018-10-15T10:15:10.887Z,61.30
2018-10-15T10:17:39.638Z,61.80
2018-10-15T10:20:07.177Z,61.70
2018-10-15T10:22:34.873Z,61.80
2018-10-15T10:25:02.618Z,62.00
2018-10-15T10:27:30.363Z,62.10
2018-10-15T10:29:58.015Z,62.20
2018-10-15T10:32:25.821Z,62.00
2018-10-15T10:36:03.789Z,61.50
2018-10-15T10:38:42.289Z,61.80
2018-10-15T10:41:10.368Z,62.20
2018-10-15T10:43:38.080Z,62.00
2018-10-15T10:46:05.814Z,61.30
2018-10-15T10:48:33.452Z,61.10
2018-10-15T10:51:01.115Z,61.30
2018-10-15T10:53:29.026Z,61.40
2018-10-15T10:55:56.684Z,62.50
2018-10-15T10:58:25.298Z,62.10
2018-10-15T11:00:53.204Z,62.40
2018-10-15T11:03:21.877Z,62.10
2018-10-15T11:05:50.510Z,61.50
2018-10-15T11:08:19.442Z,60.60
2018-10-15T11:10:47.160Z,61.40
2018-10-15T11:13:15.168Z,61.40
2018-10-15T11:15:45.036Z,61.40
2018-10-15T11:18:14.105Z,60.60
2018-10-15T11:20:43.241Z,60.60
2018-10-15T11:23:11.919Z,60.70
2018-10-15T11:25:42.105Z,59.90
2018-10-15T11:28:11.986Z,59.80
2018-10-15T11:30:41.048Z,59.90
2018-10-15T11:33:10.773Z,60.30
2018-10-15T11:35:40.424Z,60.00
2018-10-15T11:38:09.736Z,59.50
2018-10-15T11:40:38.335Z,59.80
2018-10-15T11:43:07.108Z,59.90
2018-10-15T11:45:35.667Z,60.10
2018-10-15T11:48:04.481Z,60.10
2018-10-15T11:50:33.077Z,60.20
2018-10-15T11:53:00.801Z,59.80
2018-10-15T11:55:29.422Z,59.80
2018-10-15T11:57:58.168Z,60.50
2018-10-15T12:00:26.899Z,60.90
2018-10-15T12:02:55.548Z,60.40
2018-10-15T12:05:30.969Z,61.20
2018-10-15T12:07:58.651Z,60.30
2018-10-15T12:10:26.324Z,61.40
2018-10-15T12:12:53.983Z,61.50
2018-10-15T12:15:21.665Z,60.40
2018-10-15T12:17:49.362Z,60.00
2018-10-15T12:20:17.040Z,60.10
2018-10-15T12:22:45.628Z,60.70
2018-10-15T12:25:16.168Z,61.60
2018-10-15T12:27:45.385Z,61.80
2018-10-15T12:30:14.999Z,62.10
2018-10-15T12:32:44.277Z,61.60
2018-10-15T12:35:14.895Z,61.80
2018-10-15T12:37:44.856Z,61.90
2018-10-15T12:40:14.693Z,61.70
2018-10-15T12:42:42.425Z,61.90
2018-10-15T12:45:13.425Z,62.10
2018-10-15T12:47:42.264Z,62.00
2018-10-15T12:50:11.940Z,62.30
2018-10-15T12:52:41.632Z,61.80
2018-10-15T12:55:10.498Z,62.40
2018-10-15T12:57:40.239Z,62.40
2018-10-15T13:00:09.636Z,62.10
2018-10-15T13:02:37.361Z,61.60
2018-10-15T13:05:10.788Z,61.70
2018-10-15T13:07:39.729Z,61.60
2018-10-15T13:10:08.335Z,61.80
2018-10-15T13:12:36.032Z,61.40
2018-10-15T13:15:03.736Z,61.80
2018-10-15T13:17:31.409Z,62.00
2018-10-15T13:19:59.076Z,60.80
2018-10-15T13:22:26.815Z,60.40
2018-10-15T13:24:54.514Z,61.20
2018-10-15T13:27:22.179Z,62.00
2018-10-15T13:29:49.893Z,61.40
2018-10-15T13:32:17.571Z,61.70
2018-10-15T13:34:45.662Z,61.40
2018-10-15T13:37:13.333Z,61.50
2018-10-15T13:39:41.539Z,62.00
2018-10-15T13:42:10.240Z,61.60
2018-10-15T13:44:38.073Z,62.20
2018-10-15T13:47:06.047Z,61.90
2018-10-15T13:49:34.141Z,61.80
2018-10-15T13:52:01.820Z,62.80
2018-10-15T13:54:29.500Z,60.30
2018-10-15T13:56:57.196Z,60.50
2018-10-15T13:59:24.864Z,60.80
2018-10-15T14:01:52.524Z,60.20
2018-10-15T14:04:20.193Z,61.40
2018-10-15T14:06:47.864Z,60.20
2018-10-15T14:09:15.525Z,61.00
2018-10-15T14:11:44.335Z,61.00
2018-10-15T14:14:11.993Z,62.10
2018-10-15T14:16:40.788Z,61.30
2018-10-15T14:19:09.297Z,61.20
2018-10-15T14:21:36.963Z,61.40
2018-10-15T14:24:04.644Z,61.30
2018-10-15T14:26:32.317Z,61.70
2018-10-15T14:28:59.977Z,62.10
2018-10-15T14:31:27.837Z,61.20
2018-10-15T14:33:56.408Z,62.20
2018-10-15T14:36:24.068Z,62.30
2018-10-15T14:38:51.755Z,62.30
2018-10-15T14:41:19.459Z,62.20
2018-10-15T14:43:47.132Z,62.50
2018-10-15T14:46:14.797Z,62.30
2018-10-15T14:48:42.468Z,62.50
2018-10-15T14:51:11.006Z,63.00
2018-10-15T14:53:39.505Z,62.90
2018-10-15T14:56:07.233Z,62.80
2018-10-15T14:58:35.248Z,62.50
2018-10-15T15:01:02.956Z,62.80
2018-10-15T15:03:30.687Z,62.90
2018-10-15T15:05:58.356Z,62.70
2018-10-15T15:08:26.012Z,62.10
2018-10-15T15:10:59.372Z,61.60
2018-10-15T15:13:32.799Z,61.30
2018-10-15T15:16:00.497Z,61.10
2018-10-15T15:18:29.053Z,60.90
2018-10-15T15:20:56.731Z,60.80
2018-10-15T15:23:25.288Z,60.60
2018-10-15T15:25:53.972Z,61.20
2018-10-15T15:28:22.656Z,60.60
2018-10-15T15:30:50.332Z,60.70
2018-10-15T15:33:18.000Z,61.70
2018-10-15T15:35:45.677Z,60.70
2018-10-15T15:38:14.405Z,61.00
2018-10-15T15:40:42.080Z,61.10
2018-10-15T15:43:12.229Z,60.90
2018-10-15T15:45:40.571Z,61.00
2018-10-15T15:48:08.311Z,61.30
2018-10-15T15:50:35.980Z,61.30
2018-10-15T15:53:03.668Z,60.90
2018-10-15T15:55:31.349Z,61.00
2018-10-15T15:57:59.029Z,60.80
2018-10-15T16:00:30.692Z,60.90
2018-10-15T16:02:58.504Z,61.00
2018-10-15T16:05:26.235Z,61.00
2018-10-15T16:07:53.904Z,60.90
2018-10-15T16:10:21.620Z,60.90
2018-10-15T16:12:49.297Z,61.10
2018-10-15T16:15:16.984Z,61.40
2018-10-15T16:17:46.040Z,61.20
2018-10-15T16:20:14.398Z,61.10
2018-10-15T16:22:42.072Z,61.00
2018-10-15T16:25:10.780Z,61.00
2018-10-15T16:27:38.685Z,61.00
2018-10-15T16:30:07.294Z,61.20
2018-10-15T16:32:36.073Z,61.40
2018-10-15T16:35:03.930Z,61.30
2018-10-15T16:37:31.607Z,61.30
2018-10-15T16:39:59.392Z,61.50
2018-10-15T16:42:27.065Z,61.70
2018-10-15T16:44:54.744Z,61.80
2018-10-15T16:47:22.421Z,62.00
2018-10-15T16:50:46.507Z,61.80
2018-10-15T16:53:16.392Z,61.90
2018-10-15T16:56:25.815Z,61.70
2018-10-15T17:02:03.892Z,61.60
2018-10-15T17:07:33.436Z,61.60
2018-10-15T17:10:01.226Z,61.50
2018-10-15T17:12:28.939Z,61.50
2018-10-15T17:15:20.549Z,61.90
2018-10-15T17:17:59.966Z,61.90
2018-10-15T17:20:49.360Z,62.10
2018-10-15T17:26:59.200Z,61.50
2018-10-15T17:29:44.570Z,61.20
2018-10-15T17:32:12.248Z,61.40
2018-10-15T17:34:40.792Z,61.20
2018-10-15T17:37:09.419Z,61.60
2018-10-15T17:39:37.089Z,61.20
2018-10-15T17:42:05.106Z,61.20
2018-10-15T17:44:32.780Z,61.40
2018-10-15T17:47:00.625Z,61.50
2018-10-15T17:49:28.291Z,61.00
2018-10-15T17:51:57.024Z,61.30
2018-10-15T17:54:25.797Z,61.30
2018-10-15T17:56:53.460Z,61.20
2018-10-15T17:59:21.123Z,61.00
2018-10-15T18:01:49.859Z,60.50
2018-10-15T18:04:18.496Z,60.20
2018-10-15T18:06:46.168Z,60.20
2018-10-15T18:09:18.888Z,60.10
2018-10-15T18:11:46.571Z,60.00
2018-10-15T18:14:14.328Z,59.90
2018-10-15T18:16:43.638Z,60.00
2018-10-15T18:19:12.318Z,60.10
2018-10-15T18:21:42.396Z,60.10
2018-10-15T18:24:11.402Z,60.10
2018-10-15T18:26:40.439Z,60.20
2018-10-15T18:29:08.101Z,60.30
2018-10-15T18:31:36.576Z,61.20
2018-10-15T18:34:04.288Z,61.20
2018-10-15T18:36:32.017Z,61.00
2018-10-15T18:38:59.672Z,61.10
2018-10-15T18:41:27.349Z,61.00
2018-10-15T18:43:55.916Z,60.80
2018-10-15T18:46:24.588Z,60.80
2018-10-15T18:48:53.301Z,60.80
2018-10-15T18:51:20.962Z,60.90
2018-10-15T18:53:49.648Z,61.40
2018-10-15T18:56:17.317Z,61.30
2018-10-15T18:58:45.676Z,61.00
2018-10-15T19:01:13.763Z,60.90
2018-10-15T19:03:42.516Z,60.90
2018-10-15T19:06:11.748Z,60.80
2018-10-15T19:08:41.298Z,60.80
2018-10-15T19:11:10.752Z,61.10
2018-10-15T19:13:40.853Z,61.10
2018-10-15T19:16:10.379Z,61.10
2018-10-15T19:18:38.220Z,61.00
2018-10-15T19:21:05.932Z,61.10
2018-10-15T19:23:33.608Z,61.20
2018-10-15T19:26:02.202Z,61.00
2018-10-15T19:28:29.972Z,61.00
2018-10-15T19:30:58.659Z,61.00
2018-10-15T19:33:26.403Z,61.10
2018-10-15T19:35:54.056Z,61.80
2018-10-15T19:38:22.627Z,61.80
2018-10-15T19:40:51.169Z,61.30
2018-10-15T19:43:19.860Z,61.20
2018-10-15T19:45:48.111Z,61.30
2018-10-15T19:48:15.798Z,61.20
2018-10-15T19:50:44.533Z,61.40
2018-10-15T19:53:12.239Z,61.00
2018-10-15T19:55:40.804Z,61.30
2018-10-15T19:58:13.635Z,61.30
2018-10-15T20:00:41.336Z,61.30
2018-10-15T20:03:09.777Z,61.90
2018-10-15T20:05:39.681Z,61.90
2018-10-15T20:08:09.694Z,61.80
2018-10-15T20:10:37.646Z,61.70
2018-10-15T20:13:06.176Z,61.70
2018-10-15T20:15:33.835Z,61.60
2018-10-15T20:18:01.492Z,61.50
2018-10-15T20:20:29.233Z,61.40
2018-10-15T20:22:56.956Z,61.50
2018-10-15T20:25:24.624Z,61.30
2018-10-15T20:27:52.285Z,61.50
2018-10-15T20:30:20.025Z,61.40
2018-10-15T20:32:47.692Z,61.30
2018-10-15T20:35:15.531Z,61.50
2018-10-15T20:37:43.651Z,61.30
2018-10-15T20:40:12.249Z,61.20
2018-10-15T20:42:40.752Z,61.20
2018-10-15T20:45:10.599Z,61.30
2018-10-15T20:47:41.104Z,61.30
2018-10-15T20:50:09.604Z,61.60
2018-10-15T20:52:37.995Z,61.60
2018-10-15T20:55:06.256Z,61.40
2018-10-15T20:57:34.869Z,61.00
2018-10-15T21:00:02.543Z,60.80
2018-10-15T21:02:30.212Z,60.80
2018-10-15T21:04:57.908Z,60.50
2018-10-15T21:07:25.578Z,60.30
2018-10-15T21:09:53.241Z,60.10
2018-10-15T21:12:21.071Z,60.20
2018-10-15T21:14:48.995Z,60.20
2018-10-15T21:17:16.748Z,60.20
2018-10-15T21:19:45.191Z,60.90
2018-10-15T21:22:13.707Z,60.60
2018-10-15T21:24:42.416Z,60.80
2018-10-15T21:27:11.526Z,60.80
2018-10-15T21:29:40.464Z,60.80
2018-10-15T21:32:10.413Z,60.70
2018-10-15T21:34:39.438Z,61.20
2018-10-15T21:37:08.142Z,61.40
2018-10-15T21:39:36.740Z,61.40
2018-10-15T21:42:05.406Z,61.40
2018-10-15T21:44:34.117Z,61.30
2018-10-15T21:47:01.912Z,61.20
2018-10-15T21:49:29.571Z,61.10
2018-10-15T21:51:57.368Z,61.30
2018-10-15T21:54:24.936Z,61.40
2018-10-15T21:56:52.638Z,61.40
2018-10-15T21:59:20.326Z,61.30
2018-10-15T22:01:48.004Z,61.50
2018-10-15T22:04:15.696Z,61.60
2018-10-15T22:06:43.963Z,61.30
2018-10-15T22:09:12.223Z,61.50
2018-10-15T22:11:40.451Z,61.70
2018-10-15T22:14:10.756Z,61.60
2018-10-15T22:16:40.048Z,61.60
2018-10-15T22:19:08.169Z,61.60
2018-10-15T22:21:36.752Z,61.40
2018-10-15T22:24:05.593Z,61.40
2018-10-15T22:26:34.311Z,61.30
2018-10-15T22:29:03.047Z,61.60
2018-10-15T22:31:30.717Z,61.50
2018-10-15T22:33:59.392Z,61.40
2018-10-15T22:36:27.057Z,61.20
2018-10-15T22:38:55.832Z,61.20
2018-10-15T22:41:24.492Z,61.30
2018-10-15T22:43:52.212Z,61.60
2018-10-15T22:46:21.236Z,61.50
2018-10-15T22:48:49.788Z,61.30
2018-10-15T22:51:18.510Z,61.40
2018-10-15T22:53:47.199Z,61.30
2018-10-15T22:56:15.776Z,61.30
2018-10-15T22:58:45.485Z,61.50
2018-10-15T23:01:13.676Z,61.60
2018-10-15T23:03:42.413Z,61.60
2018-10-15T23:06:11.659Z,61.30
2018-10-15T23:08:40.607Z,61.30
2018-10-15T23:11:08.268Z,61.30
2018-10-15T23:13:36.843Z,61.10
2018-10-15T23:16:04.699Z,61.10
2018-10-15T23:18:32.420Z,61.30
2018-10-15T23:21:00.203Z,61.20
2018-10-15T23:23:28.873Z,61.30
2018-10-15T23:25:56.980Z,61.10
2018-10-15T23:28:24.661Z,61.20
2018-10-15T23:30:57.908Z,60.90
2018-10-15T23:33:25.568Z,60.90
2018-10-15T23:35:54.103Z,60.90
2018-10-15T23:38:21.780Z,60.80
2018-10-15T23:40:49.444Z,60.90
2018-10-15T23:43:17.292Z,60.90
2018-10-15T23:45:45.996Z,61.00
2018-10-15T23:48:15.387Z,60.90
2018-10-15T23:50:44.109Z,60.60
2018-10-15T23:53:12.683Z,60.80
2018-10-15T23:55:41.359Z,60.40
2018-10-15T23:58:09.875Z,60.50
